ローマ/フィウミチーノ の空港の天気 - METARとTAF

ローマ・レオナルド・ダ・ビンチ国際空港 ( LIRF / FCO ) - イタリア ローマ
飛行場実況気象(Metar)
観測時間10/17 13:50 CEST (10/17 11:50 UTC)
風向・風速西 4m/s
視程10km以上
天気現象
なし
気温22℃
湿度53%
気圧1019hPa
METARLIRF 171150Z 28007KT CAVOK 22/12 Q1019 NOSIG
過去の天気等 Google飛行場航空写真 Wunderground天気予報

過去48時間のMETAR

飛行場予報(TAF)
発表時間: 10/17 13:00 CEST (10/17 11:00 UTC)
予報対象時間: 17日14時 CEST ~ 18日20時 CEST
風向・風速西 5m/s
視程10km以上
なし
17日19時 CEST ~ 17日21時 CEST に徐々に
風向・風速不定 2m/s
18日4時 CEST ~ 18日8時 CEST に一時的に
視程4000m
天気現象もや
18日11時 CEST ~ 18日13時 CEST に徐々に
風向・風速西 5m/s
TAF LIRF 171100Z 1712/1818 27010KT CAVOK
BECMG 1717/1719 VRB04KT
TEMPO 1802/1806 4000 BR
BECMG 1809/1811 27010KT